createdAt,value
2024-02-22T00:00:36.787Z,99550.28
2024-02-22T00:03:05.198Z,99561.88
2024-02-22T00:05:31.778Z,99544.06
2024-02-22T00:07:58.396Z,99546.56
2024-02-22T00:10:30.024Z,99538.09
2024-02-22T00:12:57.791Z,99532.09
2024-02-22T00:15:27.397Z,99523.13
2024-02-22T00:17:54.082Z,99522.06
2024-02-22T00:20:21.527Z,99519.91
2024-02-22T00:22:48.311Z,99525.16
2024-02-22T00:25:16.382Z,99518.13
2024-02-22T00:27:44.062Z,99513.44
2024-02-22T00:30:11.624Z,99515.72
2024-02-22T00:32:38.206Z,99505.28
2024-02-22T00:35:06.777Z,99499.31
2024-02-22T00:37:34.168Z,99487.13
2024-02-22T00:40:00.699Z,99491.06
2024-02-22T00:42:27.207Z,99492.72
2024-02-22T00:44:53.668Z,99487.84
2024-02-22T00:47:20.172Z,99485.66
2024-02-22T00:49:46.912Z,99474.69
2024-02-22T00:52:13.608Z,99474.19
2024-02-22T00:54:40.070Z,99471.44
2024-02-22T00:57:06.670Z,99468.69
2024-02-22T00:59:34.796Z,99456.59
2024-02-22T01:02:01.549Z,99454.94
2024-02-22T01:04:28.468Z,99449.44
2024-02-22T01:06:57.112Z,99451.94
2024-02-22T01:09:23.993Z,99451.44
2024-02-22T01:11:50.920Z,99436.38
2024-02-22T01:14:18.060Z,99436.38
2024-02-22T01:16:44.582Z,99431.50
2024-02-22T01:19:11.162Z,99422.16
2024-02-22T01:21:37.710Z,99423.25
2024-02-22T01:24:04.879Z,99409.00
2024-02-22T01:26:31.366Z,99407.31
2024-02-22T01:28:58.164Z,99403.50
2024-02-22T01:31:24.715Z,99399.91
2024-02-22T01:33:51.371Z,99384.25
2024-02-22T01:36:18.885Z,99390.59
2024-02-22T01:38:45.399Z,99379.59
2024-02-22T01:41:11.879Z,99368.59
2024-02-22T01:43:38.461Z,99373.00
2024-02-22T01:46:05.598Z,99363.44
2024-02-22T01:48:33.338Z,99370.59
2024-02-22T01:51:01.413Z,99359.59
2024-02-22T01:53:29.390Z,99363.16
2024-02-22T01:56:01.793Z,99354.69
2024-02-22T01:58:36.254Z,99347.84
2024-02-22T02:01:05.063Z,99341.03
2024-02-22T02:03:32.836Z,99343.78
2024-02-22T02:06:00.711Z,99335.53
2024-02-22T02:08:27.436Z,99340.75
2024-02-22T02:10:54.000Z,99338.84
2024-02-22T02:13:20.574Z,99335.00
2024-02-22T02:15:47.052Z,99324.59
2024-02-22T02:18:13.743Z,99321.84
2024-02-22T02:20:56.037Z,99314.19
2024-02-22T02:23:55.600Z,99319.06
2024-02-22T02:26:22.429Z,99310.81
2024-02-22T02:28:51.350Z,99304.25
2024-02-22T02:31:17.985Z,99299.81
2024-02-22T02:33:44.526Z,99296.84
2024-02-22T02:36:11.078Z,99292.16
2024-02-22T02:38:37.596Z,99286.66
2024-02-22T02:41:04.351Z,99285.00
2024-02-22T02:43:30.933Z,99285.84
2024-02-22T02:45:57.426Z,99288.81
2024-02-22T02:48:23.971Z,99292.16
2024-02-22T02:50:50.501Z,99276.50
2024-02-22T02:53:17.167Z,99270.16
2024-02-22T02:55:43.699Z,99268.25
2024-02-22T02:58:10.271Z,99266.31
2024-02-22T03:00:36.967Z,99276.22
2024-02-22T03:03:04.001Z,99271.56
2024-02-22T03:05:30.881Z,99259.72
2024-02-22T03:07:57.629Z,99256.41
2024-02-22T03:10:24.951Z,99254.75
2024-02-22T03:12:52.318Z,99254.16
2024-02-22T03:15:18.911Z,99244.81
2024-02-22T03:17:45.453Z,99239.31
2024-02-22T03:20:12.324Z,99235.47
2024-02-22T03:22:40.751Z,99242.06
2024-02-22T03:25:09.508Z,99239.31
2024-02-22T03:27:36.598Z,99233.81
2024-02-22T03:30:06.606Z,99237.16
2024-02-22T03:32:33.162Z,99223.41
2024-02-22T03:34:59.879Z,99224.47
2024-02-22T03:37:26.619Z,99224.47
2024-02-22T03:39:53.102Z,99225.31
2024-02-22T03:42:20.271Z,99229.47
2024-02-22T03:44:46.805Z,99221.50
2024-02-22T03:47:13.500Z,99222.06
2024-02-22T03:49:40.334Z,99202.81
2024-02-22T03:52:08.083Z,99190.44
2024-02-22T03:54:37.362Z,99189.94
2024-02-22T03:57:04.561Z,99191.38
2024-02-22T03:59:31.447Z,99181.75
2024-02-22T04:01:58.272Z,99184.25
2024-02-22T04:04:25.021Z,99189.50
2024-02-22T04:06:51.628Z,99179.09
2024-02-22T04:09:18.205Z,99175.22
2024-02-22T04:11:44.854Z,99170.88
2024-02-22T04:14:11.506Z,99163.47
2024-02-22T04:16:38.107Z,99152.44
2024-02-22T04:19:04.939Z,99154.69
2024-02-22T04:21:31.459Z,99148.38
2024-02-22T04:23:57.944Z,99144.50
2024-02-22T04:26:24.412Z,99146.19
2024-02-22T04:28:50.949Z,99149.50
2024-02-22T04:31:17.441Z,99139.31
2024-02-22T04:33:44.190Z,99139.09
2024-02-22T04:36:10.687Z,99137.16
2024-02-22T04:38:37.296Z,99145.16
2024-02-22T04:41:04.302Z,99144.66
2024-02-22T04:43:30.930Z,99142.16
2024-02-22T04:45:57.392Z,99151.25
2024-02-22T04:48:23.920Z,99142.97
2024-02-22T04:50:50.448Z,99139.16
2024-02-22T04:53:17.239Z,99135.28
2024-02-22T04:55:43.789Z,99134.22
2024-02-22T04:58:10.283Z,99135.03
2024-02-22T05:00:36.908Z,99114.41
2024-02-22T05:03:04.678Z,99114.41
2024-02-22T05:05:31.346Z,99107.81
2024-02-22T05:07:58.280Z,99110.59
2024-02-22T05:10:24.882Z,99109.75
2024-02-22T05:12:51.481Z,99107.25
2024-02-22T05:15:17.994Z,99100.09
2024-02-22T05:17:44.453Z,99098.44
2024-02-22T05:20:11.368Z,99091.56
2024-02-22T05:22:37.927Z,99099.81
2024-02-22T05:25:04.722Z,99104.56
2024-02-22T05:27:31.198Z,99096.34
2024-02-22T05:29:57.670Z,99085.66
2024-02-22T05:32:24.747Z,99090.88
2024-02-22T05:34:51.605Z,99087.88
2024-02-22T05:37:18.297Z,99081.53
2024-02-22T05:39:44.768Z,99076.03
2024-02-22T05:42:11.278Z,99080.47
2024-02-22T05:44:37.933Z,99069.44
2024-02-22T05:47:04.720Z,99069.44
2024-02-22T05:49:31.478Z,99069.44
2024-02-22T05:51:58.093Z,99070.53
2024-02-22T05:54:24.860Z,99063.94
2024-02-22T05:56:51.517Z,99060.09
2024-02-22T05:59:18.183Z,99045.75
2024-02-22T06:01:44.893Z,99049.59
2024-02-22T06:04:12.269Z,99053.47
2024-02-22T06:06:38.944Z,99062.28
2024-02-22T06:09:09.143Z,99047.66
2024-02-22T06:11:36.503Z,99053.19
2024-02-22T06:14:03.487Z,99048.50
2024-02-22T06:16:30.003Z,99042.44
2024-02-22T06:18:56.517Z,99022.59
2024-02-22T06:21:23.032Z,99018.13
2024-02-22T06:23:50.451Z,99007.66
2024-02-22T06:26:19.766Z,99019.75
2024-02-22T06:28:46.298Z,99001.84
2024-02-22T06:31:12.762Z,99007.59
2024-02-22T06:33:40.522Z,99004.00
2024-02-22T06:36:07.803Z,98997.94
2024-02-22T06:38:34.377Z,98993.28
2024-02-22T06:41:01.270Z,98993.00
2024-02-22T06:43:27.748Z,98991.34
2024-02-22T06:45:54.226Z,98990.00
2024-02-22T06:48:20.730Z,98987.25
2024-02-22T06:50:47.272Z,98980.06
2024-02-22T06:53:13.738Z,98967.16
2024-02-22T06:55:40.560Z,98957.53
2024-02-22T06:58:07.280Z,98942.44
2024-02-22T07:00:34.315Z,98953.69
2024-02-22T07:03:04.593Z,98941.59
2024-02-22T07:05:32.489Z,98937.72
2024-02-22T07:07:59.026Z,98933.59
2024-02-22T07:10:25.594Z,98941.59
2024-02-22T07:12:52.340Z,98955.06
2024-02-22T07:15:19.131Z,98944.91
2024-02-22T07:17:46.169Z,98944.38
2024-02-22T07:20:14.005Z,98943.03
2024-02-22T07:22:48.509Z,98938.91
2024-02-22T07:25:17.473Z,98929.81
2024-02-22T07:27:43.952Z,98924.06
2024-02-22T07:30:10.732Z,98921.31
2024-02-22T07:32:37.724Z,98911.38
2024-02-22T07:35:04.723Z,98915.28
2024-02-22T07:37:31.402Z,98892.72
2024-02-22T07:39:57.899Z,98892.72
2024-02-22T07:42:25.482Z,98890.25
2024-02-22T07:44:52.343Z,98893.31
2024-02-22T07:47:18.986Z,98885.09
2024-02-22T07:49:46.161Z,98889.47
2024-02-22T07:52:12.689Z,98896.94
2024-02-22T07:54:39.558Z,98894.78
2024-02-22T07:57:06.145Z,98877.41
2024-02-22T07:59:32.727Z,98861.72
2024-02-22T08:01:59.252Z,98860.38
2024-02-22T08:04:28.010Z,98863.69
2024-02-22T08:06:54.865Z,98862.59
2024-02-22T08:09:21.450Z,98854.63
2024-02-22T08:11:48.243Z,98856.00
2024-02-22T08:14:15.398Z,98854.91
2024-02-22T08:16:41.914Z,98853.53
2024-02-22T08:19:08.507Z,98848.63
2024-02-22T08:21:35.032Z,98850.81
2024-02-22T08:24:01.896Z,98844.22
2024-02-22T08:26:28.533Z,98843.66
2024-02-22T08:28:55.686Z,98836.22
2024-02-22T08:31:25.477Z,98824.66
2024-02-22T08:33:52.145Z,98823.81
2024-02-22T08:36:18.699Z,98813.63
2024-02-22T08:38:45.164Z,98790.78
2024-02-22T08:41:11.841Z,98780.03
2024-02-22T08:43:38.509Z,98777.56
2024-02-22T08:46:05.931Z,98770.41
2024-02-22T08:48:33.528Z,98760.75
2024-02-22T08:51:00.095Z,98758.00
2024-02-22T08:53:26.713Z,98753.91
2024-02-22T08:55:53.326Z,98770.97
2024-02-22T08:58:19.993Z,98753.38
2024-02-22T09:00:46.553Z,98746.50
2024-02-22T09:03:13.954Z,98745.41
2024-02-22T09:05:42.439Z,98746.50
2024-02-22T09:08:09.191Z,98728.03
2024-02-22T09:10:35.838Z,98727.19
2024-02-22T09:13:02.486Z,98725.53
2024-02-22T09:15:29.034Z,98725.56
2024-02-22T09:17:55.901Z,98721.41
2024-02-22T09:20:22.657Z,98706.78
2024-02-22T09:22:50.030Z,98705.69
2024-02-22T09:25:17.017Z,98704.59
2024-02-22T09:27:43.626Z,98707.59
2024-02-22T09:30:10.653Z,98709.78
2024-02-22T09:32:37.390Z,98700.09
2024-02-22T09:35:04.344Z,98697.63
2024-02-22T09:37:32.108Z,98684.63
2024-02-22T09:39:58.792Z,98685.69
2024-02-22T09:42:28.586Z,98670.28
2024-02-22T09:44:56.732Z,98672.47
2024-02-22T09:47:23.971Z,98659.75
2024-02-22T09:49:50.901Z,98658.34
2024-02-22T09:52:20.618Z,98653.66
2024-02-22T09:54:47.219Z,98647.56
2024-02-22T09:57:13.744Z,98639.53
2024-02-22T09:59:51.703Z,98629.00
2024-02-22T10:02:19.676Z,98624.25
2024-02-22T10:04:57.031Z,98598.00
2024-02-22T10:07:29.318Z,98590.19
2024-02-22T10:09:55.923Z,98582.09
2024-02-22T10:12:28.148Z,98584.81
2024-02-22T10:14:56.042Z,98572.56
2024-02-22T10:17:29.870Z,98566.66
2024-02-22T10:20:00.882Z,98572.44
2024-02-22T10:22:29.384Z,98583.25
2024-02-22T10:25:07.236Z,98581.59
2024-02-22T10:27:33.825Z,98568.88
2024-02-22T10:30:00.324Z,98558.66
2024-02-22T10:32:30.377Z,98555.28
2024-02-22T10:34:58.674Z,98548.19
2024-02-22T10:37:25.376Z,98535.22
2024-02-22T10:39:53.115Z,98542.69
2024-02-22T10:42:19.573Z,98539.13
2024-02-22T10:44:46.456Z,98543.81
2024-02-22T10:47:13.441Z,98541.09
2024-02-22T10:49:40.492Z,98540.25
2024-02-22T10:52:08.925Z,98539.16
2024-02-22T10:54:36.031Z,98527.84
2024-02-22T10:57:03.446Z,98521.78
2024-02-22T10:59:32.848Z,98516.84
2024-02-22T11:02:00.266Z,98510.19
2024-02-22T11:04:27.279Z,98487.03
2024-02-22T11:06:54.415Z,98493.91
2024-02-22T11:09:26.651Z,98483.09
2024-02-22T11:11:54.107Z,98490.84
2024-02-22T11:14:36.110Z,98489.69
2024-02-22T11:17:07.172Z,98475.88
2024-02-22T11:19:34.961Z,98470.56
2024-02-22T11:22:01.550Z,98454.88
2024-02-22T11:24:28.487Z,98445.69
2024-02-22T11:26:57.300Z,98434.97
2024-02-22T11:29:31.856Z,98415.84
2024-02-22T11:32:02.325Z,98403.72
2024-02-22T11:34:29.731Z,98401.47
2024-02-22T11:36:57.957Z,98395.16
2024-02-22T11:39:25.486Z,98416.09
2024-02-22T11:41:52.012Z,98401.16
2024-02-22T11:44:18.598Z,98397.34
2024-02-22T11:46:45.806Z,98384.56
2024-02-22T11:49:12.596Z,98383.97
2024-02-22T11:51:41.337Z,98387.72
2024-02-22T11:54:08.200Z,98384.41
2024-02-22T11:56:36.032Z,98373.56
2024-02-22T11:59:04.137Z,98371.03
2024-02-22T12:01:31.402Z,98370.44
2024-02-22T12:03:58.282Z,98355.19
2024-02-22T12:06:25.980Z,98352.03
2024-02-22T12:08:53.655Z,98338.97
2024-02-22T12:11:21.780Z,98328.75
2024-02-22T12:13:58.869Z,98317.03
2024-02-22T12:16:27.975Z,98317.81
2024-02-22T12:18:54.559Z,98321.94
2024-02-22T12:21:23.423Z,98324.19
2024-02-22T12:23:56.967Z,98323.56
2024-02-22T12:26:23.531Z,98308.19
2024-02-22T12:28:52.379Z,98307.34
2024-02-22T12:31:20.468Z,98299.66
2024-02-22T12:33:52.533Z,98301.97
2024-02-22T12:36:19.833Z,98281.56
2024-02-22T12:38:47.568Z,98275.81
2024-02-22T12:41:15.168Z,98263.63
2024-02-22T12:43:47.984Z,98254.28
2024-02-22T12:46:14.588Z,98243.28
2024-02-22T12:48:41.671Z,98244.94
2024-02-22T12:51:09.211Z,98234.56
2024-02-22T12:53:35.742Z,98223.88
2024-02-22T12:56:02.548Z,98216.09
2024-02-22T12:58:29.956Z,98203.69
2024-02-22T13:00:56.885Z,98196.53
2024-02-22T13:03:23.605Z,98185.56
2024-02-22T13:05:50.072Z,98172.41
2024-02-22T13:08:25.606Z,98158.81
2024-02-22T13:10:56.837Z,98137.59
2024-02-22T13:13:23.363Z,98123.84
2024-02-22T13:15:49.942Z,98121.69
2024-02-22T13:18:16.696Z,98118.19
2024-02-22T13:20:44.114Z,98109.69
2024-02-22T13:23:10.705Z,98101.16
2024-02-22T13:25:37.499Z,98092.88
2024-02-22T13:28:04.278Z,98069.13
2024-02-22T13:30:30.809Z,98070.56
2024-02-22T13:32:58.471Z,98066.09
2024-02-22T13:35:25.092Z,98076.31
2024-02-22T13:37:52.902Z,98090.13
2024-02-22T13:40:21.169Z,98082.94
2024-02-22T13:42:47.809Z,98082.66
2024-02-22T13:45:14.388Z,98074.88
2024-02-22T13:47:41.047Z,98069.56
2024-02-22T13:50:08.389Z,98047.69
2024-02-22T13:52:34.945Z,98061.72
2024-02-22T13:55:03.305Z,98056.13
2024-02-22T13:57:34.549Z,98051.03
2024-02-22T14:00:01.108Z,98055.13
2024-02-22T14:02:27.675Z,98051.97
2024-02-22T14:04:54.395Z,98044.50
2024-02-22T14:07:20.937Z,98051.38
2024-02-22T14:09:49.492Z,98024.25
2024-02-22T14:12:16.217Z,98021.97
2024-02-22T14:14:43.023Z,98022.22
2024-02-22T14:17:11.404Z,98005.09
2024-02-22T14:19:38.187Z,98006.22
2024-02-22T14:22:04.880Z,98005.41
2024-02-22T14:24:32.097Z,98003.44
2024-02-22T14:27:12.834Z,97988.00
2024-02-22T14:29:42.878Z,97981.66
2024-02-22T14:32:12.503Z,97968.66
2024-02-22T14:34:39.749Z,97959.00
2024-02-22T14:37:06.780Z,97955.53
2024-02-22T14:39:33.267Z,97932.81
2024-02-22T14:41:59.765Z,97916.84
2024-02-22T14:44:26.251Z,97908.56
2024-02-22T14:46:52.861Z,97903.66
2024-02-22T14:49:19.889Z,97878.25
2024-02-22T14:51:46.745Z,97884.38
2024-02-22T14:54:13.244Z,97875.06
2024-02-22T14:56:40.266Z,97870.78
2024-02-22T14:59:06.761Z,97859.19
2024-02-22T15:01:33.202Z,97850.81
2024-02-22T15:03:59.745Z,97846.69
2024-02-22T15:06:26.463Z,97856.72
2024-02-22T15:08:52.960Z,97836.88
2024-02-22T15:11:19.620Z,97823.38
2024-02-22T15:13:47.602Z,97823.38
2024-02-22T15:16:14.437Z,97818.16
2024-02-22T15:18:41.057Z,97807.22
2024-02-22T15:21:08.105Z,97816.56
2024-02-22T15:23:37.303Z,97827.06
2024-02-22T15:26:08.144Z,97801.69
2024-02-22T15:28:34.779Z,97800.25
2024-02-22T15:31:01.387Z,97794.47
2024-02-22T15:33:28.174Z,97795.03
2024-02-22T15:35:55.522Z,97774.06
2024-02-22T15:38:22.351Z,97776.81
2024-02-22T15:40:49.278Z,97771.84
2024-02-22T15:43:16.182Z,97768.75
2024-02-22T15:45:43.820Z,97749.13
2024-02-22T15:48:11.508Z,97751.88
2024-02-22T15:50:38.120Z,97749.13
2024-02-22T15:53:06.608Z,97751.56
2024-02-22T15:55:33.840Z,97755.47
2024-02-22T15:58:03.187Z,97749.13
2024-02-22T16:00:30.550Z,97719.22
2024-02-22T16:02:57.572Z,97708.19
2024-02-22T16:05:24.192Z,97660.13
2024-02-22T16:07:51.421Z,97589.94
2024-02-22T16:10:17.928Z,97544.59
2024-02-22T16:12:44.432Z,97613.97
2024-02-22T16:15:12.076Z,97683.53
2024-02-22T16:17:39.485Z,97692.84
2024-02-22T16:20:06.701Z,97720.25
2024-02-22T16:22:33.394Z,97698.56
2024-02-22T16:24:59.996Z,97717.41
2024-02-22T16:27:26.533Z,97696.31
2024-02-22T16:29:53.484Z,97708.97
2024-02-22T16:32:20.111Z,97689.63
2024-02-22T16:34:46.670Z,97689.34
2024-02-22T16:37:16.664Z,97654.75
2024-02-22T16:39:46.803Z,97652.81
2024-02-22T16:42:13.465Z,97658.66
2024-02-22T16:44:43.260Z,97672.47
2024-02-22T16:47:15.432Z,97661.91
2024-02-22T16:49:42.672Z,97662.41
2024-02-22T16:52:09.328Z,97672.34
2024-02-22T16:54:36.305Z,97661.63
2024-02-22T16:57:06.571Z,97655.56
2024-02-22T16:59:33.280Z,97672.78
2024-02-22T17:02:00.380Z,97694.88
2024-02-22T17:04:27.215Z,97661.41
2024-02-22T17:06:59.299Z,97673.06
2024-02-22T17:09:29.182Z,97657.63
2024-02-22T17:11:56.791Z,97647.19
2024-02-22T17:14:24.790Z,97630.41
2024-02-22T17:16:52.910Z,97619.50
2024-02-22T17:19:19.618Z,97615.91
2024-02-22T17:21:50.652Z,97613.88
2024-02-22T17:24:19.574Z,97621.44
2024-02-22T17:26:46.025Z,97600.09
2024-02-22T17:29:12.646Z,97604.88
2024-02-22T17:31:40.231Z,97596.59
2024-02-22T17:34:06.869Z,97597.56
2024-02-22T17:36:34.385Z,97597.84
2024-02-22T17:39:00.939Z,97591.22
2024-02-22T17:41:28.234Z,97602.88
2024-02-22T17:43:56.421Z,97596.84
2024-02-22T17:46:24.676Z,97613.41
2024-02-22T17:48:51.445Z,97615.03
2024-02-22T17:51:21.541Z,97619.44
2024-02-22T17:53:48.990Z,97616.06
2024-02-22T17:56:15.663Z,97651.22
2024-02-22T17:58:51.208Z,97532.50
2024-02-22T18:01:23.240Z,97488.13
2024-02-22T18:03:49.717Z,97546.41
2024-02-22T18:06:18.391Z,97528.41
2024-02-22T18:08:45.267Z,97504.38
2024-02-22T18:11:12.248Z,97552.34
2024-02-22T18:13:39.772Z,97515.81
2024-02-22T18:16:06.973Z,97470.06
2024-02-22T18:18:34.349Z,97521.41
2024-02-22T18:21:00.976Z,97507.00
2024-02-22T18:23:27.466Z,97516.97
2024-02-22T18:25:54.089Z,97500.78
2024-02-22T18:28:20.669Z,97526.66
2024-02-22T18:30:49.166Z,97522.75
2024-02-22T18:33:17.035Z,97520.72
2024-02-22T18:35:43.697Z,97518.25
2024-02-22T18:38:10.321Z,97524.16
2024-02-22T18:40:36.902Z,97515.38
2024-02-22T18:43:03.492Z,97474.28
2024-02-22T18:45:29.994Z,97463.41
2024-02-22T18:47:56.600Z,97492.34
2024-02-22T18:50:23.488Z,97474.13
2024-02-22T18:52:50.413Z,97470.78
2024-02-22T18:55:16.940Z,97477.25
2024-02-22T18:57:43.605Z,97496.06
2024-02-22T19:00:13.216Z,97514.59
2024-02-22T19:02:40.241Z,97525.84
2024-02-22T19:05:07.728Z,97546.19
2024-02-22T19:07:34.539Z,97533.19
2024-02-22T19:10:02.045Z,97541.81
2024-02-22T19:12:28.678Z,97532.53
2024-02-22T19:14:55.314Z,97533.06
2024-02-22T19:17:22.071Z,97553.53
2024-02-22T19:19:50.070Z,97637.56
2024-02-22T19:22:16.645Z,97613.69
2024-02-22T19:24:43.179Z,97592.41
2024-02-22T19:27:09.738Z,97690.72
2024-02-22T19:29:38.873Z,97718.78
2024-02-22T19:32:05.861Z,97752.56
2024-02-22T19:34:32.426Z,97777.03
2024-02-22T19:36:58.931Z,97824.47
2024-02-22T19:39:25.461Z,97799.72
2024-02-22T19:41:51.971Z,97790.38
2024-02-22T19:44:20.668Z,97752.00
2024-02-22T19:46:47.271Z,97735.59
2024-02-22T19:49:13.929Z,97727.63
2024-02-22T19:51:42.329Z,97737.59
2024-02-22T19:54:09.430Z,97730.91
2024-02-22T19:56:35.952Z,97757.38
2024-02-22T19:59:03.490Z,97743.34
2024-02-22T20:01:30.622Z,97758.25
2024-02-22T20:04:00.403Z,97775.59
2024-02-22T20:06:27.515Z,97770.97
2024-02-22T20:08:56.276Z,97798.03
2024-02-22T20:11:23.971Z,97798.16
2024-02-22T20:13:54.368Z,97793.72
2024-02-22T20:16:25.486Z,97785.00
2024-02-22T20:18:52.182Z,97799.88
2024-02-22T20:21:19.626Z,97852.97
2024-02-22T20:23:46.150Z,97821.06
2024-02-22T20:26:12.745Z,97817.19
2024-02-22T20:28:39.675Z,97810.34
2024-02-22T20:31:07.067Z,97800.38
2024-02-22T20:33:33.747Z,97819.97
2024-02-22T20:36:00.442Z,97827.91
2024-02-22T20:38:29.997Z,97849.16
2024-02-22T20:40:57.125Z,97845.59
2024-02-22T20:43:25.741Z,97862.94
2024-02-22T20:45:58.256Z,97878.63
2024-02-22T20:48:29.015Z,97917.19
2024-02-22T20:50:55.687Z,97891.88
2024-02-22T20:53:24.878Z,97925.44
2024-02-22T20:55:55.090Z,97929.00
2024-02-22T20:58:23.043Z,97919.16
2024-02-22T21:00:50.368Z,97939.25
2024-02-22T21:03:17.231Z,97950.84
2024-02-22T21:05:43.791Z,97964.34
2024-02-22T21:08:10.500Z,98002.63
2024-02-22T21:10:37.134Z,97990.56
2024-02-22T21:13:03.865Z,97990.56
2024-02-22T21:15:31.272Z,97976.22
2024-02-22T21:17:58.267Z,98000.72
2024-02-22T21:20:24.892Z,98007.59
2024-02-22T21:22:52.652Z,98026.31
2024-02-22T21:25:20.119Z,98054.38
2024-02-22T21:27:46.802Z,98048.31
2024-02-22T21:30:13.405Z,98041.75
2024-02-22T21:32:40.137Z,98072.56
2024-02-22T21:35:09.903Z,98065.94
2024-02-22T21:37:36.481Z,98069.84
2024-02-22T21:40:06.290Z,98058.28
2024-02-22T21:42:36.083Z,98078.41
2024-02-22T21:45:03.021Z,98101.81
2024-02-22T21:47:29.643Z,98123.00
2024-02-22T21:49:56.142Z,98103.22
2024-02-22T21:52:22.711Z,98112.88
2024-02-22T21:54:49.768Z,98113.97
2024-02-22T21:57:16.573Z,98115.09
2024-02-22T21:59:42.997Z,98103.53
2024-02-22T22:02:09.545Z,98101.34
2024-02-22T22:04:36.105Z,98116.44
2024-02-22T22:07:02.642Z,98112.91
2024-02-22T22:09:29.114Z,98122.25
2024-02-22T22:11:55.615Z,98133.81
2024-02-22T22:14:22.163Z,98122.25
2024-02-22T22:16:48.693Z,98115.66
2024-02-22T22:19:15.287Z,98110.69
2024-02-22T22:21:42.268Z,98122.25
2024-02-22T22:24:08.781Z,98130.75
2024-02-22T22:26:36.563Z,98100.00
2024-02-22T22:29:06.121Z,98114.56
2024-02-22T22:31:33.869Z,98123.91
2024-02-22T22:34:03.829Z,98141.50
2024-02-22T22:36:30.659Z,98157.16
2024-02-22T22:38:57.199Z,98173.69
2024-02-22T22:41:24.386Z,98186.84
2024-02-22T22:43:52.630Z,98203.06
2024-02-22T22:46:19.235Z,98203.06
2024-02-22T22:48:45.790Z,98207.97
2024-02-22T22:51:12.464Z,98220.66
2024-02-22T22:53:38.955Z,98223.09
2024-02-22T22:56:05.773Z,98234.88
2024-02-22T22:58:32.254Z,98249.44
2024-02-22T23:00:58.817Z,98283.50
2024-02-22T23:03:25.393Z,98251.91
2024-02-22T23:05:53.068Z,98262.38
2024-02-22T23:08:19.730Z,98271.97
2024-02-22T23:10:46.360Z,98287.06
2024-02-22T23:13:12.874Z,98291.44
2024-02-22T23:15:39.385Z,98310.13
2024-02-22T23:18:07.194Z,98288.16
2024-02-22T23:20:35.291Z,98301.31
2024-02-22T23:23:01.828Z,98300.19
2024-02-22T23:25:28.444Z,98327.59
2024-02-22T23:27:54.918Z,98313.56
2024-02-22T23:30:21.594Z,98323.13
2024-02-22T23:32:48.129Z,98316.22
2024-02-22T23:35:14.809Z,98347.25
2024-02-22T23:37:42.098Z,98336.50
2024-02-22T23:40:11.458Z,98340.13
2024-02-22T23:42:38.864Z,98337.94
2024-02-22T23:45:06.102Z,98351.34
2024-02-22T23:47:32.658Z,98354.38
2024-02-22T23:49:59.335Z,98387.28
2024-02-22T23:52:25.854Z,98391.66
2024-02-22T23:54:52.304Z,98394.41
2024-02-22T23:57:19.175Z,98409.81
2024-02-22T23:59:45.657Z,98420.19
